sensor_id;sensor_type;location;lat;lon;timestamp;pressure;altitude;pressure_sealevel;temperature;humidity
36260;BME280;22296;50.824;5.644;2022-12-07T00:01:59;100937.97;;;13.37;62.29
36260;BME280;22296;50.824;5.644;2022-12-07T00:04:25;100932.22;;;13.33;62.46
36260;BME280;22296;50.824;5.644;2022-12-07T00:06:52;100925.34;;;13.31;62.30
36260;BME280;22296;50.824;5.644;2022-12-07T00:09:19;100932.63;;;13.27;62.52
36260;BME280;22296;50.824;5.644;2022-12-07T00:11:48;100927.69;;;13.24;62.62
36260;BME280;22296;50.824;5.644;2022-12-07T00:14:15;100928.50;;;13.24;62.42
36260;BME280;22296;50.824;5.644;2022-12-07T00:16:42;100924.19;;;13.18;62.63
36260;BME280;22296;50.824;5.644;2022-12-07T00:19:10;100917.75;;;13.23;62.48
36260;BME280;22296;50.824;5.644;2022-12-07T00:21:37;100925.34;;;13.17;62.57
36260;BME280;22296;50.824;5.644;2022-12-07T00:24:04;100917.22;;;13.21;62.48
36260;BME280;22296;50.824;5.644;2022-12-07T00:26:32;100911.78;;;13.16;62.79
36260;BME280;22296;50.824;5.644;2022-12-07T00:29:02;100906.56;;;13.14;62.53
36260;BME280;22296;50.824;5.644;2022-12-07T00:31:30;100904.91;;;13.13;62.67
36260;BME280;22296;50.824;5.644;2022-12-07T00:33:59;100909.13;;;13.10;62.81
36260;BME280;22296;50.824;5.644;2022-12-07T00:36:26;100906.34;;;13.10;62.48
36260;BME280;22296;50.824;5.644;2022-12-07T00:38:57;100900.81;;;13.10;62.61
36260;BME280;22296;50.824;5.644;2022-12-07T00:41:25;100898.41;;;13.04;62.71
36260;BME280;22296;50.824;5.644;2022-12-07T00:43:52;100886.50;;;13.03;62.73
36260;BME280;22296;50.824;5.644;2022-12-07T00:46:19;100894.22;;;13.06;62.47
36260;BME280;22296;50.824;5.644;2022-12-07T00:48:47;100884.56;;;13.04;62.61
36260;BME280;22296;50.824;5.644;2022-12-07T00:51:14;100879.34;;;13.02;62.70
36260;BME280;22296;50.824;5.644;2022-12-07T00:53:41;100881.28;;;13.02;62.64
36260;BME280;22296;50.824;5.644;2022-12-07T00:56:11;100882.72;;;12.99;62.71
36260;BME280;22296;50.824;5.644;2022-12-07T00:58:38;100882.19;;;12.97;62.58
36260;BME280;22296;50.824;5.644;2022-12-07T01:01:05;100883.84;;;12.98;62.64
36260;BME280;22296;50.824;5.644;2022-12-07T01:03:33;100896.66;;;12.94;62.67
36260;BME280;22296;50.824;5.644;2022-12-07T01:06:00;100901.66;;;12.92;62.76
36260;BME280;22296;50.824;5.644;2022-12-07T01:08:27;100901.56;;;12.97;62.51
36260;BME280;22296;50.824;5.644;2022-12-07T01:11:00;100900.78;;;12.97;62.67
36260;BME280;22296;50.824;5.644;2022-12-07T01:13:27;100898.91;;;12.92;62.72
36260;BME280;22296;50.824;5.644;2022-12-07T01:15:56;100902.81;;;12.91;62.74
36260;BME280;22296;50.824;5.644;2022-12-07T01:18:23;100904.03;;;12.85;62.78
36260;BME280;22296;50.824;5.644;2022-12-07T01:21:03;100896.47;;;12.91;62.62
36260;BME280;22296;50.824;5.644;2022-12-07T01:23:30;100909.47;;;12.90;62.71
36260;BME280;22296;50.824;5.644;2022-12-07T01:25:57;100907.81;;;12.89;62.76
36260;BME280;22296;50.824;5.644;2022-12-07T01:28:24;100900.66;;;12.88;62.75
36260;BME280;22296;50.824;5.644;2022-12-07T01:30:55;100905.75;;;12.81;63.05
36260;BME280;22296;50.824;5.644;2022-12-07T01:33:22;100908.53;;;12.81;62.80
36260;BME280;22296;50.824;5.644;2022-12-07T01:35:48;100905.25;;;12.79;62.89
36260;BME280;22296;50.824;5.644;2022-12-07T01:38:15;100902.38;;;12.84;62.88
36260;BME280;22296;50.824;5.644;2022-12-07T01:40:41;100902.47;;;12.79;63.09
36260;BME280;22296;50.824;5.644;2022-12-07T01:43:15;100904.72;;;12.77;63.18
36260;BME280;22296;50.824;5.644;2022-12-07T01:45:44;100906.88;;;12.80;62.88
36260;BME280;22296;50.824;5.644;2022-12-07T01:48:11;100903.59;;;12.78;63.05
36260;BME280;22296;50.824;5.644;2022-12-07T01:50:38;100900.81;;;12.78;62.79
36260;BME280;22296;50.824;5.644;2022-12-07T01:53:06;100907.47;;;12.77;62.81
36260;BME280;22296;50.824;5.644;2022-12-07T01:55:35;100910.69;;;12.84;62.49
36260;BME280;22296;50.824;5.644;2022-12-07T01:58:03;100904.53;;;12.87;62.55
36260;BME280;22296;50.824;5.644;2022-12-07T02:00:30;100905.16;;;12.84;62.48
36260;BME280;22296;50.824;5.644;2022-12-07T02:03:00;100904.09;;;12.80;62.74
36260;BME280;22296;50.824;5.644;2022-12-07T02:05:29;100899.72;;;12.79;62.69
36260;BME280;22296;50.824;5.644;2022-12-07T02:07:56;100895.38;;;12.73;63.01
36260;BME280;22296;50.824;5.644;2022-12-07T02:10:27;100890.88;;;12.77;62.66
36260;BME280;22296;50.824;5.644;2022-12-07T02:13:02;100890.88;;;12.77;62.93
36260;BME280;22296;50.824;5.644;2022-12-07T02:31:26;100877.75;;;12.69;62.98
36260;BME280;22296;50.824;5.644;2022-12-07T02:33:55;100889.94;;;12.68;62.83
36260;BME280;22296;50.824;5.644;2022-12-07T02:36:28;100886.13;;;12.64;63.18
36260;BME280;22296;50.824;5.644;2022-12-07T02:39:07;100886.34;;;12.68;62.88
36260;BME280;22296;50.824;5.644;2022-12-07T02:41:40;100885.53;;;12.67;62.99
36260;BME280;22296;50.824;5.644;2022-12-07T02:44:11;100886.66;;;12.66;63.08
36260;BME280;22296;50.824;5.644;2022-12-07T02:46:40;100882.88;;;12.62;63.11
36260;BME280;22296;50.824;5.644;2022-12-07T02:49:08;100885.09;;;12.60;63.00
36260;BME280;22296;50.824;5.644;2022-12-07T02:51:38;100874.47;;;12.67;62.83
36260;BME280;22296;50.824;5.644;2022-12-07T02:54:09;100875.06;;;12.64;62.96
36260;BME280;22296;50.824;5.644;2022-12-07T03:12:29;100883.56;;;12.54;63.26
36260;BME280;22296;50.824;5.644;2022-12-07T03:15:10;100885.50;;;12.53;63.13
36260;BME280;22296;50.824;5.644;2022-12-07T03:17:38;100895.22;;;12.51;63.35
36260;BME280;22296;50.824;5.644;2022-12-07T03:20:07;100893.34;;;12.46;63.42
36260;BME280;22296;50.824;5.644;2022-12-07T03:22:35;100891.94;;;12.49;63.38
36260;BME280;22296;50.824;5.644;2022-12-07T03:25:06;100887.41;;;12.39;63.55
36260;BME280;22296;50.824;5.644;2022-12-07T03:27:36;100891.19;;;12.43;63.76
36260;BME280;22296;50.824;5.644;2022-12-07T03:35:04;100878.88;;;12.36;63.84
36260;BME280;22296;50.824;5.644;2022-12-07T03:42:34;100869.63;;;12.27;64.05
36260;BME280;22296;50.824;5.644;2022-12-07T03:45:01;100868.44;;;12.33;63.82
36260;BME280;22296;50.824;5.644;2022-12-07T03:50:25;100867.97;;;12.26;63.89
36260;BME280;22296;50.824;5.644;2022-12-07T03:52:58;100872.53;;;12.35;63.68
36260;BME280;22296;50.824;5.644;2022-12-07T03:55:27;100868.19;;;12.29;63.80
36260;BME280;22296;50.824;5.644;2022-12-07T03:57:56;100864.41;;;12.25;63.95
36260;BME280;22296;50.824;5.644;2022-12-07T04:00:24;100874.09;;;12.23;64.08
36260;BME280;22296;50.824;5.644;2022-12-07T04:02:52;100869.13;;;12.25;64.29
36260;BME280;22296;50.824;5.644;2022-12-07T04:05:19;100873.97;;;12.33;63.80
36260;BME280;22296;50.824;5.644;2022-12-07T04:07:46;100872.44;;;12.40;63.27
36260;BME280;22296;50.824;5.644;2022-12-07T04:10:13;100881.13;;;12.34;63.59
36260;BME280;22296;50.824;5.644;2022-12-07T04:12:39;100876.72;;;12.33;63.73
36260;BME280;22296;50.824;5.644;2022-12-07T04:15:06;100876.63;;;12.38;63.44
36260;BME280;22296;50.824;5.644;2022-12-07T04:17:33;100871.09;;;12.38;63.54
36260;BME280;22296;50.824;5.644;2022-12-07T04:20:00;100872.97;;;12.42;63.10
36260;BME280;22296;50.824;5.644;2022-12-07T04:22:27;100877.59;;;12.47;63.18
36260;BME280;22296;50.824;5.644;2022-12-07T04:24:53;100875.81;;;12.37;63.53
36260;BME280;22296;50.824;5.644;2022-12-07T04:27:20;100885.63;;;12.30;63.55
36260;BME280;22296;50.824;5.644;2022-12-07T04:29:46;100880.09;;;12.30;63.61
36260;BME280;22296;50.824;5.644;2022-12-07T04:32:13;100876.22;;;12.31;63.66
36260;BME280;22296;50.824;5.644;2022-12-07T04:34:40;100867.25;;;12.20;63.97
36260;BME280;22296;50.824;5.644;2022-12-07T04:37:06;100867.78;;;12.22;63.94
36260;BME280;22296;50.824;5.644;2022-12-07T04:39:33;100866.06;;;12.40;63.33
36260;BME280;22296;50.824;5.644;2022-12-07T04:42:00;100863.50;;;12.30;63.45
36260;BME280;22296;50.824;5.644;2022-12-07T04:44:27;100863.28;;;12.26;63.68
36260;BME280;22296;50.824;5.644;2022-12-07T04:46:54;100859.69;;;12.26;63.72
36260;BME280;22296;50.824;5.644;2022-12-07T04:49:21;100861.47;;;12.35;63.11
36260;BME280;22296;50.824;5.644;2022-12-07T04:51:48;100863.28;;;12.26;63.74
36260;BME280;22296;50.824;5.644;2022-12-07T04:54:15;100872.38;;;12.27;63.56
36260;BME280;22296;50.824;5.644;2022-12-07T04:56:42;100870.47;;;12.27;63.65
36260;BME280;22296;50.824;5.644;2022-12-07T04:59:09;100864.69;;;12.24;63.75
36260;BME280;22296;50.824;5.644;2022-12-07T05:01:36;100860.38;;;12.18;63.93
36260;BME280;22296;50.824;5.644;2022-12-07T05:04:03;100862.03;;;12.19;64.14
36260;BME280;22296;50.824;5.644;2022-12-07T05:06:30;100858.53;;;12.13;64.18
36260;BME280;22296;50.824;5.644;2022-12-07T05:08:56;100865.81;;;12.23;63.54
36260;BME280;22296;50.824;5.644;2022-12-07T05:11:23;100868.56;;;12.23;63.62
36260;BME280;22296;50.824;5.644;2022-12-07T05:14:06;100873.50;;;12.26;63.45
36260;BME280;22296;50.824;5.644;2022-12-07T05:16:33;100868.56;;;12.23;63.52
36260;BME280;22296;50.824;5.644;2022-12-07T05:19:00;100863.97;;;12.18;63.94
36260;BME280;22296;50.824;5.644;2022-12-07T05:21:26;100872.47;;;12.22;63.57
36260;BME280;22296;50.824;5.644;2022-12-07T05:23:53;100868.38;;;12.19;63.73
36260;BME280;22296;50.824;5.644;2022-12-07T05:26:19;100860.88;;;12.20;63.81
36260;BME280;22296;50.824;5.644;2022-12-07T05:28:49;100866.72;;;12.18;63.61
36260;BME280;22296;50.824;5.644;2022-12-07T05:31:16;100862.13;;;12.14;63.64
36260;BME280;22296;50.824;5.644;2022-12-07T05:33:42;100868.16;;;12.16;63.77
36260;BME280;22296;50.824;5.644;2022-12-07T05:36:09;100861.19;;;12.18;63.80
36260;BME280;22296;50.824;5.644;2022-12-07T05:38:35;100861.50;;;12.17;63.65
36260;BME280;22296;50.824;5.644;2022-12-07T05:41:03;100866.69;;;12.05;63.93
36260;BME280;22296;50.824;5.644;2022-12-07T05:43:30;100861.16;;;12.05;64.24
36260;BME280;22296;50.824;5.644;2022-12-07T05:45:57;100853.28;;;12.12;63.86
36260;BME280;22296;50.824;5.644;2022-12-07T05:48:24;100855.34;;;12.20;63.62
36260;BME280;22296;50.824;5.644;2022-12-07T05:50:51;100856.03;;;12.12;63.90
36260;BME280;22296;50.824;5.644;2022-12-07T05:53:18;100855.84;;;12.08;64.04
36260;BME280;22296;50.824;5.644;2022-12-07T05:55:48;100860.53;;;12.08;64.01
36260;BME280;22296;50.824;5.644;2022-12-07T05:58:15;100857.09;;;12.16;63.73
36260;BME280;22296;50.824;5.644;2022-12-07T06:01:00;100856.72;;;12.04;64.09
36260;BME280;22296;50.824;5.644;2022-12-07T06:03:27;100845.16;;;12.02;64.43
36260;BME280;22296;50.824;5.644;2022-12-07T06:05:54;100849.09;;;11.77;65.57
36260;BME280;22296;50.824;5.644;2022-12-07T06:08:20;100852.78;;;11.72;65.86
36260;BME280;22296;50.824;5.644;2022-12-07T06:10:47;100849.84;;;11.82;65.32
36260;BME280;22296;50.824;5.644;2022-12-07T06:13:34;100853.81;;;11.95;64.79
36260;BME280;22296;50.824;5.644;2022-12-07T06:16:00;100853.38;;;12.07;64.04
36260;BME280;22296;50.824;5.644;2022-12-07T06:18:27;100862.16;;;12.09;64.27
36260;BME280;22296;50.824;5.644;2022-12-07T06:20:53;100864.13;;;12.08;63.79
36260;BME280;22296;50.824;5.644;2022-12-07T06:23:20;100872.84;;;12.15;63.72
36260;BME280;22296;50.824;5.644;2022-12-07T06:25:47;100867.69;;;12.09;63.73
36260;BME280;22296;50.824;5.644;2022-12-07T06:28:13;100867.56;;;12.00;64.05
36260;BME280;22296;50.824;5.644;2022-12-07T06:30:40;100865.03;;;12.04;63.70
36260;BME280;22296;50.824;5.644;2022-12-07T06:33:07;100862.94;;;11.95;64.07
36260;BME280;22296;50.824;5.644;2022-12-07T06:35:33;100869.50;;;11.99;63.70
36260;BME280;22296;50.824;5.644;2022-12-07T06:38:00;100850.22;;;11.94;64.17
36260;BME280;22296;50.824;5.644;2022-12-07T06:40:26;100859.25;;;12.00;63.74
36260;BME280;22296;50.824;5.644;2022-12-07T06:42:53;100860.78;;;11.92;63.82
36260;BME280;22296;50.824;5.644;2022-12-07T06:45:19;100861.88;;;11.91;63.87
36260;BME280;22296;50.824;5.644;2022-12-07T06:47:46;100863.97;;;11.99;63.77
36260;BME280;22296;50.824;5.644;2022-12-07T06:50:13;100865.78;;;11.90;63.96
36260;BME280;22296;50.824;5.644;2022-12-07T06:52:39;100873.53;;;11.88;64.05
36260;BME280;22296;50.824;5.644;2022-12-07T06:55:06;100863.97;;;11.99;63.55
36260;BME280;22296;50.824;5.644;2022-12-07T06:57:33;100871.22;;;11.95;63.69
36260;BME280;22296;50.824;5.644;2022-12-07T06:59:59;100868.59;;;11.85;64.04
36260;BME280;22296;50.824;5.644;2022-12-07T07:02:27;100868.00;;;11.88;63.85
36260;BME280;22296;50.824;5.644;2022-12-07T07:04:56;100866.00;;;11.94;63.64
36260;BME280;22296;50.824;5.644;2022-12-07T07:07:22;100875.03;;;11.99;63.44
36260;BME280;22296;50.824;5.644;2022-12-07T07:09:49;100864.66;;;11.91;63.75
36260;BME280;22296;50.824;5.644;2022-12-07T07:12:19;100875.78;;;11.86;63.96
36260;BME280;22296;50.824;5.644;2022-12-07T07:14:45;100879.28;;;11.92;63.80
36260;BME280;22296;50.824;5.644;2022-12-07T07:17:12;100879.06;;;11.88;63.91
36260;BME280;22296;50.824;5.644;2022-12-07T07:19:38;100878.84;;;11.85;63.83
36260;BME280;22296;50.824;5.644;2022-12-07T07:22:05;100879.06;;;11.88;63.62
36260;BME280;22296;50.824;5.644;2022-12-07T07:24:32;100881.66;;;11.80;64.07
36260;BME280;22296;50.824;5.644;2022-12-07T07:26:58;100876.88;;;11.85;64.02
36260;BME280;22296;50.824;5.644;2022-12-07T07:29:25;100879.06;;;11.88;63.77
36260;BME280;22296;50.824;5.644;2022-12-07T07:31:52;100870.25;;;11.86;63.72
36260;BME280;22296;50.824;5.644;2022-12-07T07:34:18;100874.44;;;11.84;63.92
36260;BME280;22296;50.824;5.644;2022-12-07T07:36:45;100862.75;;;11.68;64.31
36260;BME280;22296;50.824;5.644;2022-12-07T07:39:14;100877.69;;;11.67;64.80
36260;BME280;22296;50.824;5.644;2022-12-07T07:41:41;100873.78;;;11.68;64.54
36260;BME280;22296;50.824;5.644;2022-12-07T07:44:12;100878.25;;;11.69;64.66
36260;BME280;22296;50.824;5.644;2022-12-07T07:46:39;100881.13;;;11.59;65.36
36260;BME280;22296;50.824;5.644;2022-12-07T07:49:06;100869.47;;;11.62;65.24
36260;BME280;22296;50.824;5.644;2022-12-07T07:51:32;100877.22;;;11.60;65.10
36260;BME280;22296;50.824;5.644;2022-12-07T07:53:59;100880.47;;;11.67;64.93
36260;BME280;22296;50.824;5.644;2022-12-07T07:56:25;100883.47;;;11.71;64.62
36260;BME280;22296;50.824;5.644;2022-12-07T07:58:52;100884.50;;;11.75;64.28
36260;BME280;22296;50.824;5.644;2022-12-07T08:01:19;100885.94;;;11.72;64.51
36260;BME280;22296;50.824;5.644;2022-12-07T08:03:46;100891.94;;;11.79;64.05
36260;BME280;22296;50.824;5.644;2022-12-07T08:06:13;100884.81;;;11.73;64.33
36260;BME280;22296;50.824;5.644;2022-12-07T08:08:39;100889.69;;;11.81;64.01
36260;BME280;22296;50.824;5.644;2022-12-07T08:11:06;100890.78;;;11.80;64.04
36260;BME280;22296;50.824;5.644;2022-12-07T08:13:33;100899.16;;;11.75;64.21
36260;BME280;22296;50.824;5.644;2022-12-07T08:16:04;100894.75;;;11.74;64.37
36260;BME280;22296;50.824;5.644;2022-12-07T08:18:31;100890.34;;;11.73;64.50
36260;BME280;22296;50.824;5.644;2022-12-07T08:21:00;100896.97;;;11.72;64.57
36260;BME280;22296;50.824;5.644;2022-12-07T08:23:27;100894.03;;;11.64;65.35
36260;BME280;22296;50.824;5.644;2022-12-07T08:26:06;100894.34;;;11.62;65.26
36260;BME280;22296;50.824;5.644;2022-12-07T08:28:32;100900.97;;;11.61;65.65
36260;BME280;22296;50.824;5.644;2022-12-07T08:31:00;100889.34;;;11.64;65.57
36260;BME280;22296;50.824;5.644;2022-12-07T08:33:27;100896.47;;;11.65;65.93
36260;BME280;22296;50.824;5.644;2022-12-07T08:35:53;100894.25;;;11.67;65.72
36260;BME280;22296;50.824;5.644;2022-12-07T08:38:20;100894.81;;;11.69;65.88
36260;BME280;22296;50.824;5.644;2022-12-07T08:40:53;100887.44;;;11.83;65.09
36260;BME280;22296;50.824;5.644;2022-12-07T08:43:20;100895.22;;;11.81;65.69
36260;BME280;22296;50.824;5.644;2022-12-07T08:45:53;100904.00;;;11.83;65.58
36260;BME280;22296;50.824;5.644;2022-12-07T08:48:26;100901.75;;;11.85;65.25
36260;BME280;22296;50.824;5.644;2022-12-07T08:50:53;100899.38;;;11.97;65.06
36260;BME280;22296;50.824;5.644;2022-12-07T08:53:19;100902.66;;;11.99;64.91
36260;BME280;22296;50.824;5.644;2022-12-07T08:55:46;100909.00;;;12.00;65.46
36260;BME280;22296;50.824;5.644;2022-12-07T08:58:13;100905.06;;;12.06;65.96
36260;BME280;22296;50.824;5.644;2022-12-07T09:00:40;100910.66;;;12.20;65.79
36260;BME280;22296;50.824;5.644;2022-12-07T09:03:09;100902.91;;;12.22;65.53
36260;BME280;22296;50.824;5.644;2022-12-07T09:05:36;100905.03;;;12.43;65.23
36260;BME280;22296;50.824;5.644;2022-12-07T09:08:02;100904.47;;;12.28;64.95
36260;BME280;22296;50.824;5.644;2022-12-07T09:10:29;100902.97;;;12.17;65.29
36260;BME280;22296;50.824;5.644;2022-12-07T09:12:56;100897.47;;;12.17;65.07
36260;BME280;22296;50.824;5.644;2022-12-07T09:15:27;100898.47;;;12.21;64.72
36260;BME280;22296;50.824;5.644;2022-12-07T09:17:54;100904.00;;;12.21;64.78
36260;BME280;22296;50.824;5.644;2022-12-07T09:20:20;100901.94;;;12.13;64.93
36260;BME280;22296;50.824;5.644;2022-12-07T09:22:53;100906.69;;;12.26;64.48
36260;BME280;22296;50.824;5.644;2022-12-07T09:25:20;100909.91;;;12.33;64.26
36260;BME280;22296;50.824;5.644;2022-12-07T09:27:46;100906.69;;;12.26;64.52
36260;BME280;22296;50.824;5.644;2022-12-07T09:30:13;100906.50;;;12.22;64.44
36260;BME280;22296;50.824;5.644;2022-12-07T09:32:40;100904.00;;;12.21;64.84
36260;BME280;22296;50.824;5.644;2022-12-07T09:35:06;100901.75;;;12.23;64.64
36260;BME280;22296;50.824;5.644;2022-12-07T09:37:33;100906.69;;;12.26;64.33
36260;BME280;22296;50.824;5.644;2022-12-07T09:40:02;100900.66;;;12.24;64.83
36260;BME280;22296;50.824;5.644;2022-12-07T09:42:37;100900.56;;;12.29;64.47
36260;BME280;22296;50.824;5.644;2022-12-07T09:45:07;100895.03;;;12.29;64.62
36260;BME280;22296;50.824;5.644;2022-12-07T09:47:36;100893.19;;;12.24;64.80
36260;BME280;22296;50.824;5.644;2022-12-07T09:50:05;100891.75;;;12.27;64.67
36260;BME280;22296;50.824;5.644;2022-12-07T09:52:31;100891.66;;;12.32;64.34
36260;BME280;22296;50.824;5.644;2022-12-07T09:55:08;100896.81;;;12.38;64.28
36260;BME280;22296;50.824;5.644;2022-12-07T09:57:35;100907.50;;;12.45;64.08
36260;BME280;22296;50.824;5.644;2022-12-07T10:00:04;100907.56;;;12.40;64.09
36260;BME280;22296;50.824;5.644;2022-12-07T10:02:40;100899.81;;;12.42;64.32
36260;BME280;22296;50.824;5.644;2022-12-07T10:05:15;100901.53;;;12.38;64.44
36260;BME280;22296;50.824;5.644;2022-12-07T10:07:49;100905.16;;;12.52;64.02
36260;BME280;22296;50.824;5.644;2022-12-07T10:10:21;100897.56;;;12.44;64.27
36260;BME280;22296;50.824;5.644;2022-12-07T10:15:23;100899.63;;;12.52;64.22
36260;BME280;22296;50.824;5.644;2022-12-07T10:17:51;100887.34;;;12.58;63.92
36260;BME280;22296;50.824;5.644;2022-12-07T10:20:22;100896.25;;;12.55;64.02
36260;BME280;22296;50.824;5.644;2022-12-07T10:22:56;100892.88;;;12.58;64.01
36260;BME280;22296;50.824;5.644;2022-12-07T10:25:25;100890.63;;;12.60;63.89
36260;BME280;22296;50.824;5.644;2022-12-07T10:30:25;100886.66;;;12.66;63.86
36260;BME280;22296;50.824;5.644;2022-12-07T10:32:51;100882.44;;;12.69;63.85
36260;BME280;22296;50.824;5.644;2022-12-07T10:37:45;100870.03;;;12.66;63.83
36260;BME280;22296;50.824;5.644;2022-12-07T10:40:45;100866.06;;;12.72;63.83
36260;BME280;22296;50.824;5.644;2022-12-07T10:59:04;100850.91;;;12.83;63.66
36260;BME280;22296;50.824;5.644;2022-12-07T11:06:36;100839.56;;;12.85;63.56
36260;BME280;22296;50.824;5.644;2022-12-07T11:11:56;100836.63;;;13.08;63.56
36260;BME280;22296;50.824;5.644;2022-12-07T11:17:31;100827.25;;;13.32;62.94
36260;BME280;22296;50.824;5.644;2022-12-07T11:27:39;100815.44;;;13.53;62.89
36260;BME280;22296;50.824;5.644;2022-12-07T11:30:14;100807.00;;;13.58;62.76
36260;BME280;22296;50.824;5.644;2022-12-07T11:37:59;100795.25;;;13.75;62.28
36260;BME280;22296;50.824;5.644;2022-12-07T11:40:29;100794.75;;;13.73;62.45
36260;BME280;22296;50.824;5.644;2022-12-07T11:45:43;100788.09;;;13.74;62.56
36260;BME280;22296;50.824;5.644;2022-12-07T11:48:15;100789.81;;;13.48;62.99
36260;BME280;22296;50.824;5.644;2022-12-07T11:50:46;100787.69;;;13.31;63.53
36260;BME280;22296;50.824;5.644;2022-12-07T11:53:18;100786.16;;;13.25;63.54
36260;BME280;22296;50.824;5.644;2022-12-07T12:03:50;100772.09;;;13.22;63.76
36260;BME280;22296;50.824;5.644;2022-12-07T12:06:19;100770.78;;;13.19;63.74
36260;BME280;22296;50.824;5.644;2022-12-07T12:22:41;100751.88;;;13.21;63.91
36260;BME280;22296;50.824;5.644;2022-12-07T12:25:28;100756.59;;;13.21;64.18
36260;BME280;22296;50.824;5.644;2022-12-07T12:27:57;100747.78;;;13.19;64.17
36260;BME280;22296;50.824;5.644;2022-12-07T12:32:51;100748.00;;;13.22;63.84
36260;BME280;22296;50.824;5.644;2022-12-07T12:37:54;100741.13;;;13.20;64.10
36260;BME280;22296;50.824;5.644;2022-12-07T12:42:48;100740.81;;;13.21;63.99
36260;BME280;22296;50.824;5.644;2022-12-07T12:47:58;100731.88;;;13.24;63.93
36260;BME280;22296;50.824;5.644;2022-12-07T12:50:29;100726.06;;;13.26;64.11
36260;BME280;22296;50.824;5.644;2022-12-07T12:53:20;100727.88;;;13.30;64.20
36260;BME280;22296;50.824;5.644;2022-12-07T12:55:50;100721.38;;;13.35;64.10
36260;BME280;22296;50.824;5.644;2022-12-07T12:58:22;100725.81;;;13.36;64.08
36260;BME280;22296;50.824;5.644;2022-12-07T13:03:55;100715.75;;;13.40;64.23
36260;BME280;22296;50.824;5.644;2022-12-07T13:08:48;100711.53;;;13.42;64.24
36260;BME280;22296;50.824;5.644;2022-12-07T13:11:17;100712.66;;;13.41;64.30
36260;BME280;22296;50.824;5.644;2022-12-07T13:13:44;100709.38;;;13.39;64.07
36260;BME280;22296;50.824;5.644;2022-12-07T13:18:37;100705.09;;;13.33;64.59
36260;BME280;22296;50.824;5.644;2022-12-07T13:28:44;100698.44;;;13.34;64.34
36260;BME280;22296;50.824;5.644;2022-12-07T13:31:25;100693.06;;;13.38;64.29
36260;BME280;22296;50.824;5.644;2022-12-07T13:33:56;100690.91;;;13.35;64.16
36260;BME280;22296;50.824;5.644;2022-12-07T13:36:24;100689.91;;;13.31;64.43
36260;BME280;22296;50.824;5.644;2022-12-07T13:39:01;100691.53;;;13.32;64.19
36260;BME280;22296;50.824;5.644;2022-12-07T13:41:36;100681.28;;;13.32;64.39
36260;BME280;22296;50.824;5.644;2022-12-07T13:44:09;100687.84;;;13.36;64.22
36260;BME280;22296;50.824;5.644;2022-12-07T13:46:44;100677.41;;;13.33;64.22
36260;BME280;22296;50.824;5.644;2022-12-07T13:49:17;100685.38;;;13.35;64.16
36260;BME280;22296;50.824;5.644;2022-12-07T13:51:44;100673.50;;;13.34;64.15
36260;BME280;22296;50.824;5.644;2022-12-07T13:54:11;100676.56;;;13.33;64.14
36260;BME280;22296;50.824;5.644;2022-12-07T13:56:38;100673.81;;;13.33;64.17
36260;BME280;22296;50.824;5.644;2022-12-07T13:59:24;100672.69;;;13.34;64.17
36260;BME280;22296;50.824;5.644;2022-12-07T14:01:52;100667.13;;;13.34;64.32
36260;BME280;22296;50.824;5.644;2022-12-07T14:04:35;100665.69;;;13.36;64.02
36260;BME280;22296;50.824;5.644;2022-12-07T14:10:00;100663.22;;;13.35;64.10
36260;BME280;22296;50.824;5.644;2022-12-07T14:12:28;100658.84;;;13.34;64.36
36260;BME280;22296;50.824;5.644;2022-12-07T14:14:56;100657.69;;;13.35;64.06
36260;BME280;22296;50.824;5.644;2022-12-07T14:17:24;100657.69;;;13.35;64.17
36260;BME280;22296;50.824;5.644;2022-12-07T14:19:52;100651.03;;;13.36;64.10
36260;BME280;22296;50.824;5.644;2022-12-07T14:22:33;100648.75;;;13.38;64.14
36260;BME280;22296;50.824;5.644;2022-12-07T14:27:33;100645.19;;;13.37;63.98
36260;BME280;22296;50.824;5.644;2022-12-07T14:30:01;100645.97;;;13.38;64.28
36260;BME280;22296;50.824;5.644;2022-12-07T14:32:28;100657.31;;;13.50;64.62
36260;BME280;22296;50.824;5.644;2022-12-07T14:37:28;100654.66;;;13.67;64.54
36260;BME280;22296;50.824;5.644;2022-12-07T14:39:55;100648.50;;;13.70;64.50
36260;BME280;22296;50.824;5.644;2022-12-07T14:42:23;100638.91;;;13.76;64.45
36260;BME280;22296;50.824;5.644;2022-12-07T14:44:51;100646.31;;;13.89;64.16
36260;BME280;22296;50.824;5.644;2022-12-07T14:47:17;100642.41;;;13.90;64.04
36260;BME280;22296;50.824;5.644;2022-12-07T14:50:04;100640.75;;;13.89;64.08
36260;BME280;22296;50.824;5.644;2022-12-07T14:52:32;100635.84;;;13.86;63.97
36260;BME280;22296;50.824;5.644;2022-12-07T14:57:48;100622.44;;;13.71;63.97
36260;BME280;22296;50.824;5.644;2022-12-07T15:00:16;100626.19;;;13.75;63.74
36260;BME280;22296;50.824;5.644;2022-12-07T15:02:44;100621.16;;;13.77;63.53
36260;BME280;22296;50.824;5.644;2022-12-07T15:05:11;100612.47;;;13.70;63.63
36260;BME280;22296;50.824;5.644;2022-12-07T15:07:42;100612.94;;;13.72;63.56
36260;BME280;22296;50.824;5.644;2022-12-07T15:10:13;100612.94;;;13.72;63.57
36260;BME280;22296;50.824;5.644;2022-12-07T15:12:45;100615.44;;;13.74;63.49
36260;BME280;22296;50.824;5.644;2022-12-07T15:15:12;100611.50;;;13.75;63.18
36260;BME280;22296;50.824;5.644;2022-12-07T15:17:39;100619.94;;;13.69;63.49
36260;BME280;22296;50.824;5.644;2022-12-07T15:20:08;100615.44;;;13.74;63.24
36260;BME280;22296;50.824;5.644;2022-12-07T15:22:37;100614.22;;;13.66;63.37
36260;BME280;22296;50.824;5.644;2022-12-07T15:25:04;100605.91;;;13.66;63.50
36260;BME280;22296;50.824;5.644;2022-12-07T15:27:32;100611.44;;;13.66;63.40
36260;BME280;22296;50.824;5.644;2022-12-07T15:30:17;100607.78;;;13.79;63.72
36260;BME280;22296;50.824;5.644;2022-12-07T15:32:48;100607.50;;;13.89;63.61